createdAt,value
2018-06-15T00:02:31.424Z,11.30
2018-06-15T00:05:07.388Z,10.57
2018-06-15T00:07:41.106Z,12.37
2018-06-15T00:10:16.553Z,12.77
2018-06-15T00:12:50.973Z,12.40
2018-06-15T00:15:26.926Z,12.80
2018-06-15T00:18:02.409Z,12.10
2018-06-15T00:20:36.261Z,13.70
2018-06-15T00:23:10.891Z,13.73
2018-06-15T00:25:43.652Z,13.97
2018-06-15T00:28:18.838Z,14.30
2018-06-15T00:30:52.847Z,13.83
2018-06-15T00:33:25.173Z,14.30
2018-06-15T00:35:58.261Z,14.10
2018-06-15T00:38:32.019Z,16.03
2018-06-15T00:41:05.920Z,16.57
2018-06-15T00:43:41.984Z,17.97
2018-06-15T00:46:15.614Z,18.23
2018-06-15T00:48:54.961Z,17.17
2018-06-15T00:51:28.314Z,17.53
2018-06-15T00:54:02.627Z,17.63
2018-06-15T00:56:37.457Z,17.57
2018-06-15T00:59:08.780Z,18.50
2018-06-15T01:01:49.475Z,17.40
2018-06-15T01:04:21.968Z,17.53
2018-06-15T01:07:01.633Z,16.70
2018-06-15T01:09:34.462Z,16.97
2018-06-15T01:12:10.032Z,17.43
2018-06-15T01:14:43.624Z,19.50
2018-06-15T01:17:21.631Z,19.77
2018-06-15T01:19:56.124Z,20.33
2018-06-15T01:22:30.242Z,20.27
2018-06-15T01:25:07.123Z,21.43
2018-06-15T01:27:45.173Z,20.03
2018-06-15T01:30:17.624Z,20.53
2018-06-15T01:32:56.732Z,20.37
2018-06-15T01:35:30.454Z,22.53
2018-06-15T01:38:01.599Z,22.73
2018-06-15T01:40:37.866Z,22.80
2018-06-15T01:43:08.886Z,23.60
2018-06-15T01:45:41.125Z,22.43
2018-06-15T01:48:17.749Z,25.83
2018-06-15T01:50:52.702Z,21.77
2018-06-15T01:53:26.874Z,22.20
2018-06-15T01:56:01.167Z,24.10
2018-06-15T01:58:33.381Z,24.60
2018-06-15T02:01:07.588Z,33.13
2018-06-15T02:03:44.304Z,24.43
2018-06-15T02:06:17.766Z,24.80
2018-06-15T02:08:52.112Z,25.30
2018-06-15T02:11:26.413Z,25.70
2018-06-15T02:14:00.026Z,25.73
2018-06-15T02:16:33.506Z,25.27
2018-06-15T02:19:11.508Z,24.70
2018-06-15T02:21:44.430Z,27.27
2018-06-15T02:24:15.793Z,25.63
2018-06-15T02:26:55.011Z,26.53
2018-06-15T02:29:28.393Z,27.00
2018-06-15T02:32:02.415Z,27.80
2018-06-15T02:34:34.422Z,26.50
2018-06-15T02:37:07.365Z,26.90
2018-06-15T02:39:39.395Z,23.70
2018-06-15T02:42:13.422Z,24.73
2018-06-15T02:44:45.537Z,23.33
2018-06-15T02:47:20.793Z,23.47
2018-06-15T02:49:54.495Z,21.93
2018-06-15T02:52:29.105Z,23.33
2018-06-15T02:55:07.020Z,24.50
2018-06-15T02:57:38.355Z,26.37
2018-06-15T03:00:18.143Z,25.83
2018-06-15T03:02:54.575Z,26.27
2018-06-15T03:05:28.201Z,24.43
2018-06-15T03:08:08.434Z,26.40
2018-06-15T03:10:41.387Z,27.10
2018-06-15T03:13:21.911Z,28.10
2018-06-15T03:15:57.474Z,27.47
2018-06-15T03:18:31.427Z,26.90
2018-06-15T03:21:04.849Z,26.30
2018-06-15T03:23:42.655Z,27.20
2018-06-15T03:26:19.176Z,27.83
2018-06-15T03:28:56.659Z,28.00
2018-06-15T03:31:36.290Z,25.90
2018-06-15T03:34:08.767Z,26.03
2018-06-15T03:36:49.729Z,28.03
2018-06-15T03:39:21.539Z,27.93
2018-06-15T03:41:53.773Z,28.60
2018-06-15T03:44:27.894Z,25.83
2018-06-15T03:46:59.960Z,27.90
2018-06-15T03:49:32.941Z,29.63
2018-06-15T03:52:04.956Z,29.17
2018-06-15T03:54:38.097Z,28.63
2018-06-15T03:57:10.602Z,28.47
2018-06-15T03:59:41.146Z,30.20
2018-06-15T04:02:13.930Z,30.70
2018-06-15T04:04:48.656Z,33.73
2018-06-15T04:07:19.619Z,30.43
2018-06-15T04:09:49.983Z,29.70
2018-06-15T04:12:22.518Z,30.53
2018-06-15T04:14:53.555Z,30.43
2018-06-15T04:17:24.438Z,29.83
2018-06-15T04:19:54.292Z,33.23
2018-06-15T04:22:24.402Z,32.67
2018-06-15T04:24:54.897Z,30.60
2018-06-15T04:27:25.438Z,33.00
2018-06-15T04:29:56.114Z,33.70
2018-06-15T04:32:25.867Z,31.27
2018-06-15T04:34:55.549Z,33.43
2018-06-15T04:37:26.231Z,32.37
2018-06-15T04:39:56.040Z,33.37
2018-06-15T04:42:25.806Z,32.70
2018-06-15T04:44:56.955Z,31.40
2018-06-15T04:47:26.685Z,33.50
2018-06-15T04:49:57.430Z,33.67
2018-06-15T04:52:27.485Z,35.43
2018-06-15T04:54:57.200Z,36.47
2018-06-15T04:57:26.964Z,34.33
2018-06-15T04:59:58.416Z,34.43
2018-06-15T05:02:29.848Z,33.63
2018-06-15T05:05:01.047Z,34.87
2018-06-15T05:07:31.925Z,35.97
2018-06-15T05:10:01.601Z,35.20
2018-06-15T05:12:32.807Z,33.80
2018-06-15T05:15:05.918Z,34.70
2018-06-15T05:17:36.136Z,33.07
2018-06-15T05:20:07.010Z,32.40
2018-06-15T05:22:37.348Z,33.57
2018-06-15T05:25:07.599Z,35.37
2018-06-15T05:27:38.061Z,36.80
2018-06-15T05:30:09.293Z,33.43
2018-06-15T05:32:40.367Z,29.67
2018-06-15T05:35:10.360Z,34.33
2018-06-15T05:37:40.482Z,34.27
2018-06-15T05:40:10.118Z,34.73
2018-06-15T05:42:40.433Z,34.07
2018-06-15T05:45:10.132Z,32.43
2018-06-15T05:47:40.901Z,32.70
2018-06-15T05:50:11.224Z,33.30
2018-06-15T05:52:42.035Z,32.73
2018-06-15T05:55:12.636Z,33.83
2018-06-15T05:57:43.157Z,31.13
2018-06-15T06:00:13.656Z,31.70
2018-06-15T06:02:44.288Z,30.87
2018-06-15T06:05:15.886Z,31.60
2018-06-15T06:07:46.354Z,34.13
2018-06-15T06:10:18.771Z,29.67
2018-06-15T06:12:50.358Z,27.83
2018-06-15T06:15:20.743Z,32.17
2018-06-15T06:17:51.630Z,28.53
2018-06-15T06:20:21.325Z,27.47
2018-06-15T06:22:52.730Z,30.60
2018-06-15T06:25:24.447Z,28.23
2018-06-15T06:27:54.698Z,30.50
2018-06-15T06:30:26.529Z,29.47
2018-06-15T06:32:57.321Z,29.60
2018-06-15T06:35:27.068Z,28.53
2018-06-15T06:37:56.588Z,32.03
2018-06-15T06:40:27.215Z,31.50
2018-06-15T06:42:57.438Z,31.70
2018-06-15T06:45:27.990Z,31.67
2018-06-15T06:47:57.624Z,30.57
2018-06-15T06:50:28.130Z,31.17
2018-06-15T06:52:59.222Z,30.80
2018-06-15T06:55:30.296Z,29.37
2018-06-15T06:58:01.790Z,28.57
2018-06-15T07:00:33.447Z,29.57
2018-06-15T07:03:03.144Z,26.33
2018-06-15T07:05:33.612Z,26.87
2018-06-15T07:08:05.859Z,26.53
2018-06-15T07:10:35.810Z,27.60
2018-06-15T07:13:05.416Z,26.97
2018-06-15T07:15:35.082Z,27.87
2018-06-15T07:18:07.326Z,28.33
2018-06-15T07:20:37.850Z,26.27
2018-06-15T07:23:08.944Z,28.23
2018-06-15T07:25:39.320Z,26.63
2018-06-15T07:28:09.412Z,26.67
2018-06-15T07:30:41.011Z,25.03
2018-06-15T07:33:11.774Z,23.23
2018-06-15T07:35:44.714Z,25.00
2018-06-15T07:38:16.406Z,26.47
2018-06-15T07:40:48.668Z,27.23
2018-06-15T07:43:19.705Z,26.63
2018-06-15T07:45:50.971Z,28.77
2018-06-15T07:48:21.092Z,25.03
2018-06-15T07:50:53.767Z,26.33
2018-06-15T07:53:23.544Z,25.97
2018-06-15T07:55:53.907Z,23.73
2018-06-15T07:58:23.541Z,24.03
2018-06-15T08:00:54.335Z,26.30
2018-06-15T08:03:24.038Z,23.00
2018-06-15T08:05:53.816Z,22.70
2018-06-15T08:08:24.864Z,21.83
2018-06-15T08:10:56.415Z,26.00
2018-06-15T08:13:26.985Z,23.00
2018-06-15T08:15:56.681Z,24.13
2018-06-15T08:18:26.403Z,23.00
2018-06-15T08:20:57.239Z,19.80
2018-06-15T08:23:27.524Z,22.53
2018-06-15T08:25:57.199Z,20.10
2018-06-15T08:28:26.940Z,20.10
2018-06-15T08:30:58.583Z,20.20
2018-06-15T08:33:29.223Z,17.43
2018-06-15T08:35:59.568Z,15.43
2018-06-15T08:38:31.157Z,17.33
2018-06-15T08:41:01.441Z,15.33
2018-06-15T08:43:31.144Z,15.30
2018-06-15T08:46:01.443Z,16.57
2018-06-15T08:48:30.909Z,16.90
2018-06-15T08:51:00.628Z,15.35
2018-06-15T08:53:30.633Z,16.65
2018-06-15T08:56:01.192Z,18.10
2018-06-15T08:58:31.585Z,16.90
2018-06-15T09:01:02.229Z,15.53
2018-06-15T09:03:32.936Z,15.67
2018-06-15T09:06:02.741Z,16.73
2018-06-15T09:08:35.698Z,15.83
2018-06-15T09:11:05.428Z,14.93
2018-06-15T09:13:36.657Z,14.37
2018-06-15T09:16:06.313Z,13.23
2018-06-15T09:18:36.845Z,13.43
2018-06-15T09:21:09.022Z,13.57
2018-06-15T09:23:39.871Z,12.63
2018-06-15T09:26:09.555Z,13.87
2018-06-15T09:28:39.173Z,12.40
2018-06-15T09:31:12.633Z,10.90
2018-06-15T09:33:43.367Z,12.40
2018-06-15T09:36:13.129Z,11.87
2018-06-15T09:38:44.850Z,15.40
2018-06-15T09:41:15.016Z,13.53
2018-06-15T09:43:45.164Z,12.65
2018-06-15T09:46:16.468Z,13.57
2018-06-15T09:48:47.107Z,12.33
2018-06-15T09:51:17.003Z,12.93
2018-06-15T09:53:48.298Z,11.60
2018-06-15T09:56:18.269Z,10.53
2018-06-15T09:58:48.098Z,11.60
2018-06-15T10:01:19.224Z,10.77
2018-06-15T10:03:50.070Z,11.93
2018-06-15T10:06:20.754Z,8.93
2018-06-15T10:08:51.206Z,7.83
2018-06-15T10:11:21.757Z,10.95
2018-06-15T10:13:51.533Z,8.57
2018-06-15T10:16:22.082Z,9.40
2018-06-15T10:18:52.192Z,9.30
2018-06-15T10:21:22.728Z,8.13
2018-06-15T10:23:53.216Z,10.23
2018-06-15T10:26:23.651Z,7.70
2018-06-15T10:28:55.240Z,7.20
2018-06-15T10:31:25.032Z,5.58
2018-06-15T10:33:55.457Z,7.97
2018-06-15T10:36:25.561Z,6.97
2018-06-15T10:38:56.010Z,8.83
2018-06-15T10:41:26.010Z,9.13
2018-06-15T10:43:55.716Z,10.35
2018-06-15T10:46:25.557Z,7.73
2018-06-15T10:48:55.148Z,7.60
2018-06-15T10:51:24.756Z,7.03
2018-06-15T10:53:56.215Z,5.40
2018-06-15T10:56:26.315Z,7.33
2018-06-15T10:58:57.465Z,7.03
2018-06-15T11:01:27.042Z,7.63
2018-06-15T11:03:57.299Z,7.40
2018-06-15T11:06:27.909Z,8.53
2018-06-15T11:08:58.204Z,7.13
2018-06-15T11:11:28.178Z,9.03
2018-06-15T11:14:00.595Z,8.65
2018-06-15T11:16:30.894Z,8.33
2018-06-15T11:19:02.629Z,9.50
2018-06-15T11:21:33.101Z,6.17
2018-06-15T11:24:03.951Z,6.17
2018-06-15T11:26:34.317Z,7.33
2018-06-15T11:29:04.045Z,6.40
2018-06-15T11:31:33.746Z,7.67
2018-06-15T11:34:03.425Z,6.87
2018-06-15T11:36:33.355Z,8.90
2018-06-15T11:39:03.422Z,6.00
2018-06-15T11:41:33.176Z,7.47
2018-06-15T11:44:03.627Z,5.73
2018-06-15T11:46:34.304Z,8.60
2018-06-15T11:49:05.844Z,6.63
2018-06-15T11:51:36.344Z,5.05
2018-06-15T11:54:07.018Z,4.80
2018-06-15T11:56:36.743Z,4.90
2018-06-15T11:59:07.099Z,4.67
2018-06-15T12:01:37.680Z,4.60
2018-06-15T12:04:09.546Z,6.15
2018-06-15T12:06:39.724Z,5.77
2018-06-15T12:09:10.970Z,6.90
2018-06-15T12:11:40.871Z,5.93
2018-06-15T12:14:10.549Z,5.10
2018-06-15T12:16:41.833Z,4.65
2018-06-15T12:19:12.298Z,4.60
2018-06-15T12:21:42.284Z,4.70
2018-06-15T12:24:12.703Z,4.45
2018-06-15T12:26:43.354Z,4.85
2018-06-15T12:29:15.244Z,4.22
2018-06-15T12:31:46.392Z,4.10
2018-06-15T12:34:17.126Z,4.45
2018-06-15T12:36:47.888Z,4.47
2018-06-15T12:39:17.741Z,5.42
2018-06-15T12:41:47.436Z,3.50
2018-06-15T12:44:17.702Z,3.62
2018-06-15T12:46:47.442Z,3.87
2018-06-15T12:49:17.757Z,3.90
2018-06-15T12:51:48.605Z,3.87
2018-06-15T12:54:18.283Z,7.17
2018-06-15T12:56:49.135Z,4.05
2018-06-15T12:59:19.523Z,5.58
2018-06-15T13:01:49.809Z,3.65
2018-06-15T13:04:20.267Z,3.98
2018-06-15T13:06:53.615Z,4.20
2018-06-15T13:09:24.241Z,3.42
2018-06-15T13:11:55.301Z,3.60
2018-06-15T13:14:25.759Z,4.58
2018-06-15T13:16:55.492Z,3.80
2018-06-15T13:19:25.689Z,6.35
2018-06-15T13:21:57.578Z,4.30
2018-06-15T13:24:27.467Z,4.90
2018-06-15T13:26:57.157Z,4.45
2018-06-15T13:29:27.826Z,4.33
2018-06-15T13:32:03.518Z,3.60
2018-06-15T13:34:33.307Z,4.47
2018-06-15T13:37:05.432Z,3.83
2018-06-15T13:39:36.088Z,4.00
2018-06-15T13:42:08.157Z,4.30
2018-06-15T13:44:38.526Z,4.35
2018-06-15T13:47:08.356Z,3.75
2018-06-15T13:49:37.984Z,5.62
2018-06-15T13:52:09.003Z,4.60
2018-06-15T13:54:38.995Z,4.60
2018-06-15T13:57:08.624Z,4.00
2018-06-15T13:59:38.967Z,3.42
2018-06-15T14:02:08.663Z,4.47
2018-06-15T14:04:38.281Z,3.90
2018-06-15T14:07:09.620Z,3.65
2018-06-15T14:09:39.364Z,3.55
2018-06-15T14:12:09.154Z,3.72
2018-06-15T14:14:39.023Z,4.00
2018-06-15T14:17:10.045Z,5.42
2018-06-15T14:19:39.921Z,4.83
2018-06-15T14:22:10.614Z,4.60
2018-06-15T14:24:42.257Z,5.53
2018-06-15T14:27:11.998Z,4.60
2018-06-15T14:29:41.805Z,4.10
2018-06-15T14:32:11.833Z,4.97
2018-06-15T14:34:41.811Z,4.28
2018-06-15T14:37:11.514Z,5.55
2018-06-15T14:39:41.639Z,4.78
2018-06-15T14:42:11.387Z,5.33
2018-06-15T14:44:42.286Z,5.33
2018-06-15T14:47:12.018Z,5.03
2018-06-15T14:49:42.668Z,5.25
2018-06-15T14:52:14.214Z,4.83
2018-06-15T14:54:43.995Z,4.45
2018-06-15T14:57:14.593Z,4.30
2018-06-15T14:59:45.642Z,5.20
2018-06-15T15:02:15.580Z,5.28
2018-06-15T15:04:47.398Z,4.67
2018-06-15T15:07:20.452Z,6.05
2018-06-15T15:09:50.119Z,6.12
2018-06-15T15:12:20.841Z,5.47
2018-06-15T15:14:51.429Z,5.08
2018-06-15T15:17:22.497Z,5.50
2018-06-15T15:19:54.455Z,4.95
2018-06-15T15:22:24.481Z,5.28
2018-06-15T15:24:56.886Z,5.40
2018-06-15T15:27:27.596Z,4.80
2018-06-15T15:29:58.049Z,5.05
2018-06-15T15:32:27.829Z,5.70
2018-06-15T15:34:57.681Z,4.60
2018-06-15T15:37:27.833Z,4.78
2018-06-15T15:39:57.493Z,4.72
2018-06-15T15:42:27.150Z,4.75
2018-06-15T15:44:56.958Z,4.65
2018-06-15T15:47:26.623Z,5.10
2018-06-15T15:49:56.722Z,5.05
2018-06-15T15:52:27.117Z,5.20
2018-06-15T15:54:57.496Z,4.62
2018-06-15T15:57:27.397Z,4.67
2018-06-15T15:59:57.409Z,4.80
2018-06-15T16:02:27.308Z,4.78
2018-06-15T16:04:57.779Z,4.30
2018-06-15T16:07:27.596Z,4.37
2018-06-15T16:09:57.475Z,4.20
2018-06-15T16:12:27.293Z,4.30
2018-06-15T16:14:57.253Z,4.12
2018-06-15T16:17:27.378Z,4.20
2018-06-15T16:19:57.444Z,6.08
2018-06-15T16:22:27.267Z,4.95
2018-06-15T16:24:56.978Z,4.78
2018-06-15T16:27:27.193Z,4.30
2018-06-15T16:29:57.474Z,3.98
2018-06-15T16:32:27.154Z,4.28
2018-06-15T16:34:58.995Z,4.20
2018-06-15T16:37:28.706Z,4.35
2018-06-15T16:40:00.307Z,4.35
2018-06-15T16:42:30.529Z,4.45
2018-06-15T16:45:00.291Z,4.25
2018-06-15T16:47:30.980Z,5.17
2018-06-15T16:50:00.660Z,5.62
2018-06-15T16:52:31.246Z,4.20
2018-06-15T16:55:01.105Z,4.28
2018-06-15T16:57:30.852Z,4.55
2018-06-15T17:00:01.576Z,4.10
2018-06-15T17:02:31.286Z,4.08
2018-06-15T17:05:01.162Z,4.05
2018-06-15T17:07:30.906Z,3.98
2018-06-15T17:10:01.378Z,4.35
2018-06-15T17:12:32.585Z,4.10
2018-06-15T17:15:02.603Z,4.70
2018-06-15T17:17:32.245Z,4.95
2018-06-15T17:20:02.504Z,4.40
2018-06-15T17:22:34.536Z,5.37
2018-06-15T17:25:04.840Z,5.03
2018-06-15T17:27:34.590Z,4.40
2018-06-15T17:30:04.466Z,4.17
2018-06-15T17:32:34.206Z,4.40
2018-06-15T17:35:03.988Z,4.53
2018-06-15T17:37:34.788Z,4.30
2018-06-15T17:40:04.532Z,3.42
2018-06-15T17:42:34.254Z,4.35
2018-06-15T17:45:04.080Z,4.20
2018-06-15T17:47:34.864Z,5.90
2018-06-15T17:50:04.707Z,4.67
2018-06-15T17:52:34.783Z,4.42
2018-06-15T17:55:06.039Z,4.72
2018-06-15T17:57:36.093Z,3.92
2018-06-15T18:00:07.073Z,3.83
2018-06-15T18:02:37.123Z,3.72
2018-06-15T18:05:07.477Z,4.25
2018-06-15T18:07:37.568Z,3.83
2018-06-15T18:10:07.357Z,3.77
2018-06-15T18:12:37.700Z,3.72
2018-06-15T18:15:08.467Z,3.85
2018-06-15T18:17:38.303Z,4.85
2018-06-15T18:20:08.623Z,4.42
2018-06-15T18:22:38.693Z,3.90
2018-06-15T18:25:08.514Z,4.30
2018-06-15T18:27:38.194Z,4.10
2018-06-15T18:30:07.930Z,3.37
2018-06-15T18:32:37.731Z,3.50
2018-06-15T18:35:07.415Z,3.67
2018-06-15T18:37:37.122Z,3.98
2018-06-15T18:40:07.005Z,3.80
2018-06-15T18:42:37.124Z,4.08
2018-06-15T18:45:06.869Z,3.72
2018-06-15T18:47:36.817Z,5.47
2018-06-15T18:50:07.723Z,3.80
2018-06-15T18:52:38.001Z,4.42
2018-06-15T18:55:08.200Z,5.22
2018-06-15T18:57:38.040Z,3.80
2018-06-15T19:00:08.206Z,3.72
2018-06-15T19:02:38.356Z,4.28
2018-06-15T19:05:08.386Z,3.87
2018-06-15T19:07:38.097Z,4.35
2018-06-15T19:10:08.020Z,4.70
2018-06-15T19:12:37.698Z,4.22
2018-06-15T19:15:07.934Z,3.98
2018-06-15T19:17:37.950Z,4.37
2018-06-15T19:20:07.820Z,5.23
2018-06-15T19:22:38.203Z,4.50
2018-06-15T19:25:09.098Z,3.87
2018-06-15T19:27:38.959Z,3.90
2018-06-15T19:30:08.666Z,4.22
2018-06-15T19:32:38.554Z,4.22
2018-06-15T19:35:08.291Z,4.00
2018-06-15T19:37:38.351Z,4.80
2018-06-15T19:40:08.143Z,4.75
2018-06-15T19:42:37.932Z,4.40
2018-06-15T19:45:07.892Z,4.20
2018-06-15T19:47:37.535Z,4.28
2018-06-15T19:50:07.884Z,4.20
2018-06-15T19:52:38.481Z,4.10
2018-06-15T19:55:08.189Z,4.67
2018-06-15T19:57:37.907Z,4.70
2018-06-15T20:00:07.807Z,4.50
2018-06-15T20:02:37.249Z,4.17
2018-06-15T20:05:07.233Z,4.03
2018-06-15T20:07:36.954Z,5.05
2018-06-15T20:10:06.687Z,4.40
2018-06-15T20:12:36.373Z,4.20
2018-06-15T20:15:07.110Z,4.20
2018-06-15T20:17:38.177Z,4.60
2018-06-15T20:20:08.620Z,3.93
2018-06-15T20:22:38.240Z,4.07
2018-06-15T20:25:08.123Z,4.15
2018-06-15T20:27:39.331Z,4.20
2018-06-15T20:30:09.076Z,3.90
2018-06-15T20:32:38.787Z,4.17
2018-06-15T20:35:08.538Z,4.40
2018-06-15T20:37:38.340Z,4.23
2018-06-15T20:40:07.944Z,4.25
2018-06-15T20:42:38.554Z,4.40
2018-06-15T20:45:08.220Z,4.47
2018-06-15T20:47:37.997Z,4.20
2018-06-15T20:50:08.271Z,4.20
2018-06-15T20:52:38.705Z,4.43
2018-06-15T20:55:09.445Z,4.70
2018-06-15T20:57:39.058Z,4.50
2018-06-15T21:00:08.977Z,4.65
2018-06-15T21:02:38.703Z,4.43
2018-06-15T21:05:08.502Z,4.40
2018-06-15T21:07:38.625Z,4.17
2018-06-15T21:10:08.437Z,4.43
2018-06-15T21:12:38.230Z,4.50
2018-06-15T21:15:08.121Z,4.40
2018-06-15T21:17:37.824Z,4.67
2018-06-15T21:20:08.327Z,4.50
2018-06-15T21:22:37.995Z,4.87
2018-06-15T21:25:08.627Z,5.20
2018-06-15T21:27:40.348Z,4.63
2018-06-15T21:30:10.399Z,4.72
2018-06-15T21:32:40.221Z,4.90
2018-06-15T21:35:10.125Z,4.90
2018-06-15T21:37:39.880Z,5.47
2018-06-15T21:40:09.594Z,5.17
2018-06-15T21:42:39.435Z,4.80
2018-06-15T21:45:09.296Z,5.27
2018-06-15T21:47:39.150Z,4.97
2018-06-15T21:50:08.662Z,5.30
2018-06-15T21:52:39.639Z,5.60
2018-06-15T21:55:09.441Z,4.90
2018-06-15T21:57:39.320Z,5.40
2018-06-15T22:00:09.927Z,5.03
2018-06-15T22:02:39.680Z,5.17
2018-06-15T22:05:09.386Z,5.40
2018-06-15T22:07:39.188Z,6.03
2018-06-15T22:10:09.122Z,5.67
2018-06-15T22:12:38.815Z,5.60
2018-06-15T22:15:08.565Z,6.23
2018-06-15T22:17:38.235Z,5.93
2018-06-15T22:20:07.851Z,5.83
2018-06-15T22:22:37.556Z,6.27
2018-06-15T22:25:07.200Z,5.70
2018-06-15T22:27:36.897Z,6.13
2018-06-15T22:30:07.222Z,6.03
2018-06-15T22:32:37.383Z,6.17
2018-06-15T22:35:07.195Z,5.83
2018-06-15T22:37:36.804Z,6.23
2018-06-15T22:40:06.485Z,5.93
2018-06-15T22:42:36.376Z,6.17
2018-06-15T22:45:06.173Z,6.17
2018-06-15T22:47:35.774Z,6.37
2018-06-15T22:50:05.452Z,6.97
2018-06-15T22:52:35.139Z,6.27
2018-06-15T22:55:05.857Z,6.40
2018-06-15T22:57:36.501Z,6.97
2018-06-15T23:00:07.266Z,6.90
2018-06-15T23:02:38.288Z,6.87
2018-06-15T23:05:07.975Z,6.70
2018-06-15T23:07:37.774Z,7.50
2018-06-15T23:10:07.548Z,7.53
2018-06-15T23:12:37.223Z,7.20
2018-06-15T23:15:07.229Z,6.80
2018-06-15T23:17:37.909Z,7.67
2018-06-15T23:20:07.772Z,7.80
2018-06-15T23:22:38.809Z,7.17
2018-06-15T23:25:09.310Z,6.83
2018-06-15T23:27:39.076Z,7.50
2018-06-15T23:30:08.735Z,7.77
2018-06-15T23:32:39.288Z,8.00
2018-06-15T23:35:08.915Z,7.13
2018-06-15T23:37:38.686Z,7.60
2018-06-15T23:40:09.170Z,8.13
2018-06-15T23:42:38.799Z,6.83
2018-06-15T23:45:08.625Z,7.33
2018-06-15T23:47:38.759Z,7.00
2018-06-15T23:50:09.846Z,7.30
2018-06-15T23:52:39.527Z,6.90
2018-06-15T23:55:09.796Z,7.00
2018-06-15T23:57:39.535Z,7.27
